Hopewell, Canada
Current Conditions -  °F | °C
As of 8:48 PM on Saturday 25 Oct 2014 (Local Time) from CYHZ Reporting Station
Overcast Overcast  
Wind Chill: 46°   Ceiling: 1800
Heat Index: 48°   Visibility: 15mi
Dew Point: 46°   Wind: 6mph
Humidity: 93%   Direction: 320°NW
Pressure: 29.51"   Gusts: NA
Location:  45.47°N, 62.7°W
Report Text: CYHZ 252348Z 32005KT 15SM SCT012 OVC018 09/08 A2951 RMK SC4SC4 SLP996
Loading
Personal Weather Stations






























Interactive Weather Map New forecast layout! Learn more

10-Day Weather Forecast

Advertisements
Track Severe Weather on mobile